Terminal Aerodrome Forecast
Issued by NWS San Angelo, TX

Home | Current Version | Previous Version | Text Only | Print | Product List | Glossary On
Versions: 1 2 3 4 5 6 7 8 9 10 11 12 13 14 15 16 17
000
FTUS44 KSJT 211100
TAFSJT
TAF
KSJT 211120Z 2112/2212 17007KT P6SM SCT040
      TEMPO 2112/2115 BKN040
     FM211500 18011G18KT P6SM SCT050
     FM220730 18010KT P6SM BKN012=

USA.gov is the U.S. government's official web portal to all federal, state and local government web resources and services.